createdAt,value
2019-03-16T00:00:20.056Z,7.72
2019-03-16T00:01:20.045Z,7.74
2019-03-16T00:02:20.341Z,7.71
2019-03-16T00:03:20.025Z,7.77
2019-03-16T00:04:20.015Z,7.79
2019-03-16T00:05:20.003Z,7.79
2019-03-16T00:06:20.000Z,7.75
2019-03-16T00:07:32.497Z,7.92
2019-03-16T00:08:21.038Z,7.82
2019-03-16T00:09:20.276Z,7.77
2019-03-16T00:10:19.950Z,7.81
2019-03-16T00:11:19.943Z,7.84
2019-03-16T00:12:19.932Z,7.72
2019-03-16T00:13:19.919Z,7.82
2019-03-16T00:14:20.191Z,7.81
2019-03-16T00:15:19.901Z,7.75
2019-03-16T00:16:20.968Z,7.72
2019-03-16T00:17:23.272Z,7.81
2019-03-16T00:18:20.576Z,7.77
2019-03-16T00:19:19.862Z,7.82
2019-03-16T00:20:19.878Z,7.75
2019-03-16T00:21:19.841Z,7.79
2019-03-16T00:22:19.827Z,7.79
2019-03-16T00:23:20.093Z,7.81
2019-03-16T00:24:19.806Z,7.75
2019-03-16T00:25:19.796Z,7.84
2019-03-16T00:26:19.823Z,7.85
2019-03-16T00:27:19.777Z,7.78
2019-03-16T00:28:19.766Z,7.77
2019-03-16T00:29:19.756Z,7.75
2019-03-16T00:30:20.029Z,7.82
2019-03-16T00:31:19.735Z,7.87
2019-03-16T00:32:19.784Z,7.75
2019-03-16T00:33:19.715Z,7.75
2019-03-16T00:34:19.707Z,7.81
2019-03-16T00:35:19.693Z,7.85
2019-03-16T00:36:19.686Z,7.85
2019-03-16T00:37:20.043Z,7.71
2019-03-16T00:38:19.743Z,7.78
2019-03-16T00:39:19.650Z,7.84
2019-03-16T00:40:19.642Z,7.74
2019-03-16T00:41:19.631Z,7.81
2019-03-16T00:42:19.620Z,7.71
2019-03-16T00:43:19.610Z,7.75
2019-03-16T00:44:20.451Z,7.74
2019-03-16T00:45:19.589Z,7.75
2019-03-16T00:46:19.579Z,7.84
2019-03-16T00:47:19.567Z,7.81
2019-03-16T00:48:19.636Z,7.78
2019-03-16T00:49:19.546Z,7.71
2019-03-16T00:50:19.691Z,7.77
2019-03-16T00:51:19.822Z,7.78
2019-03-16T00:52:19.517Z,7.74
2019-03-16T00:53:19.509Z,7.77
2019-03-16T00:54:19.496Z,7.79
2019-03-16T00:55:19.485Z,7.74
2019-03-16T00:56:19.512Z,7.87
2019-03-16T00:57:19.465Z,7.82
2019-03-16T00:58:19.744Z,7.79
2019-03-16T00:59:19.443Z,7.87
2019-03-16T01:00:19.432Z,7.82
2019-03-16T01:01:19.422Z,7.81
2019-03-16T01:02:27.127Z,7.90
2019-03-16T01:03:20.400Z,7.89
2019-03-16T01:04:19.397Z,7.85
2019-03-16T01:05:19.667Z,7.79
2019-03-16T01:06:19.371Z,7.82
2019-03-16T01:07:19.360Z,7.84
2019-03-16T01:08:19.393Z,7.84
2019-03-16T01:09:19.348Z,7.79
2019-03-16T01:10:19.329Z,7.75
2019-03-16T01:11:19.318Z,7.89
2019-03-16T01:12:19.588Z,7.79
2019-03-16T01:13:19.301Z,7.75
2019-03-16T01:14:19.411Z,7.87
2019-03-16T01:15:19.277Z,7.82
2019-03-16T01:16:19.267Z,7.81
2019-03-16T01:17:19.280Z,7.77
2019-03-16T01:18:19.252Z,7.81
2019-03-16T01:19:19.537Z,7.81
2019-03-16T01:20:19.430Z,7.75
2019-03-16T01:21:19.219Z,7.78
2019-03-16T01:22:19.210Z,7.75
2019-03-16T01:23:19.200Z,7.81
2019-03-16T01:24:19.207Z,7.78
2019-03-16T01:25:19.175Z,7.77
2019-03-16T01:26:19.505Z,7.85
2019-03-16T01:27:19.161Z,7.84
2019-03-16T01:28:19.149Z,7.75
2019-03-16T01:29:19.133Z,7.78
2019-03-16T01:30:19.123Z,7.63
2019-03-16T01:31:19.112Z,7.74
2019-03-16T01:32:19.160Z,7.71
2019-03-16T01:33:19.379Z,7.84
2019-03-16T01:34:19.085Z,7.75
2019-03-16T01:35:19.085Z,7.72
2019-03-16T01:36:19.061Z,7.72
2019-03-16T01:37:19.053Z,7.72
2019-03-16T01:38:19.076Z,7.75
2019-03-16T01:39:19.030Z,7.72
2019-03-16T01:40:19.300Z,7.69
2019-03-16T01:41:19.021Z,7.74
2019-03-16T01:42:18.999Z,7.71
2019-03-16T01:43:18.991Z,7.66
2019-03-16T01:44:20.089Z,7.72
2019-03-16T01:45:18.968Z,7.71
2019-03-16T01:46:18.980Z,7.67
2019-03-16T01:47:20.023Z,7.72
2019-03-16T01:48:18.940Z,7.78
2019-03-16T01:49:18.941Z,7.78
2019-03-16T01:50:21.697Z,7.69
2019-03-16T01:51:18.906Z,7.72
2019-03-16T01:52:18.904Z,7.69
2019-03-16T01:53:19.560Z,7.71
2019-03-16T01:54:19.154Z,7.72
2019-03-16T01:55:18.865Z,7.81
2019-03-16T01:56:19.598Z,7.79
2019-03-16T01:57:18.843Z,7.85
2019-03-16T01:58:18.835Z,7.81
2019-03-16T01:59:18.831Z,7.69
2019-03-16T02:00:18.816Z,7.63
2019-03-16T02:01:18.802Z,7.75
2019-03-16T02:02:19.271Z,7.69
2019-03-16T02:03:18.781Z,7.75
2019-03-16T02:04:18.771Z,7.71
2019-03-16T02:05:18.769Z,7.66
2019-03-16T02:06:18.774Z,7.72
2019-03-16T02:07:18.739Z,7.63
2019-03-16T02:08:18.771Z,7.63
2019-03-16T02:09:18.719Z,7.63
2019-03-16T02:10:18.709Z,7.66
2019-03-16T02:11:18.702Z,7.58
2019-03-16T02:12:18.688Z,7.71
2019-03-16T02:13:18.954Z,7.69
2019-03-16T02:14:18.760Z,7.58
2019-03-16T02:15:18.669Z,7.63
2019-03-16T02:16:18.707Z,7.63
2019-03-16T02:17:18.640Z,7.66
2019-03-16T02:18:18.662Z,7.60
2019-03-16T02:19:18.617Z,7.60
2019-03-16T02:20:18.672Z,7.63
2019-03-16T02:21:18.596Z,7.69
2019-03-16T02:22:18.585Z,7.67
2019-03-16T02:23:18.574Z,7.63
2019-03-16T02:24:18.566Z,7.71
2019-03-16T02:25:18.834Z,7.67
2019-03-16T02:26:18.586Z,7.72
2019-03-16T02:27:18.564Z,7.59
2019-03-16T02:28:18.523Z,7.58
2019-03-16T02:29:18.516Z,7.56
2019-03-16T02:30:18.503Z,7.59
2019-03-16T02:31:18.494Z,7.60
2019-03-16T02:32:18.835Z,7.63
2019-03-16T02:33:18.480Z,7.52
2019-03-16T02:34:18.461Z,7.69
2019-03-16T02:35:18.452Z,7.58
2019-03-16T02:36:18.445Z,7.60
2019-03-16T02:37:18.431Z,7.63
2019-03-16T02:38:18.495Z,7.72
2019-03-16T02:39:18.708Z,7.60
2019-03-16T02:40:18.397Z,7.58
2019-03-16T02:41:18.389Z,7.67
2019-03-16T02:42:18.386Z,7.63
2019-03-16T02:43:18.367Z,7.66
2019-03-16T02:44:18.405Z,7.72
2019-03-16T02:45:18.349Z,7.71
2019-03-16T02:46:18.629Z,7.62
2019-03-16T02:47:18.326Z,7.59
2019-03-16T02:48:18.323Z,7.58
2019-03-16T02:49:18.304Z,7.67
2019-03-16T02:50:18.341Z,7.69
2019-03-16T02:51:18.286Z,7.71
2019-03-16T02:52:18.317Z,7.71
2019-03-16T02:53:18.542Z,7.63
2019-03-16T02:54:18.251Z,7.56
2019-03-16T02:55:18.247Z,7.59
2019-03-16T02:56:19.584Z,7.71
2019-03-16T02:57:18.222Z,7.67
2019-03-16T02:58:18.224Z,7.69
2019-03-16T02:59:18.203Z,7.58
2019-03-16T03:01:40.147Z,7.59
2019-03-16T03:02:40.091Z,7.59
2019-03-16T03:03:40.027Z,7.50
2019-03-16T03:04:40.021Z,7.58
2019-03-16T03:05:40.009Z,7.52
2019-03-16T03:06:39.993Z,7.56
2019-03-16T03:07:40.355Z,7.58
2019-03-16T03:08:39.973Z,7.52
2019-03-16T03:09:40.023Z,7.49
2019-03-16T03:10:39.956Z,7.47
2019-03-16T03:11:39.979Z,7.62
2019-03-16T03:12:40.046Z,7.52
2019-03-16T03:13:40.017Z,7.52
2019-03-16T03:14:39.919Z,7.56
2019-03-16T03:15:39.905Z,7.56
2019-03-16T03:16:39.889Z,7.49
2019-03-16T03:17:39.882Z,7.60
2019-03-16T03:18:39.872Z,7.56
2019-03-16T03:19:40.239Z,7.55
2019-03-16T03:20:39.856Z,7.56
2019-03-16T03:21:39.856Z,7.56
2019-03-16T03:22:39.826Z,7.63
2019-03-16T03:23:39.817Z,7.50
2019-03-16T03:24:43.939Z,7.58
2019-03-16T03:25:40.135Z,7.59
2019-03-16T03:26:39.789Z,7.52
2019-03-16T03:27:39.780Z,7.53
2019-03-16T03:28:39.762Z,7.50
2019-03-16T03:29:39.751Z,7.56
2019-03-16T03:30:39.759Z,7.52
2019-03-16T03:31:40.076Z,7.56
2019-03-16T03:32:39.768Z,7.49
2019-03-16T03:33:58.744Z,7.60
2019-03-16T03:34:40.698Z,7.62
2019-03-16T03:35:39.687Z,7.59
2019-03-16T03:36:39.676Z,7.59
2019-03-16T03:37:40.000Z,7.56
2019-03-16T03:38:39.995Z,7.55
2019-03-16T03:39:39.644Z,7.47
2019-03-16T03:40:39.638Z,7.52
2019-03-16T03:41:39.625Z,7.58
2019-03-16T03:42:39.614Z,7.56
2019-03-16T03:43:39.648Z,7.55
2019-03-16T03:44:39.594Z,7.47
2019-03-16T03:45:39.891Z,7.49
2019-03-16T03:46:39.581Z,7.55
2019-03-16T03:47:39.579Z,7.58
2019-03-16T03:48:39.552Z,7.58
2019-03-16T03:49:39.584Z,7.56
2019-03-16T03:50:39.539Z,7.49
2019-03-16T03:51:39.519Z,7.55
2019-03-16T03:52:39.805Z,7.52
2019-03-16T03:53:41.315Z,7.49
2019-03-16T03:54:39.499Z,7.52
2019-03-16T03:55:39.675Z,7.53
2019-03-16T03:56:39.471Z,7.56
2019-03-16T03:57:39.459Z,7.49
2019-03-16T03:58:39.446Z,7.55
2019-03-16T03:59:39.719Z,7.44
2019-03-16T04:00:39.425Z,7.45
2019-03-16T04:01:39.472Z,7.45
2019-03-16T04:02:39.408Z,7.49
2019-03-16T04:03:39.393Z,7.56
2019-03-16T04:04:39.382Z,7.55
2019-03-16T04:05:39.375Z,7.53
2019-03-16T04:06:39.675Z,7.55
2019-03-16T04:07:39.388Z,7.49
2019-03-16T04:08:39.358Z,7.45
2019-03-16T04:09:39.333Z,7.45
2019-03-16T04:10:39.323Z,7.52
2019-03-16T04:11:39.313Z,7.42
2019-03-16T04:12:39.309Z,7.59
2019-03-16T04:13:41.729Z,7.50
2019-03-16T04:14:39.277Z,7.55
2019-03-16T04:15:39.286Z,7.44
2019-03-16T04:16:39.256Z,7.47
2019-03-16T04:17:39.289Z,7.49
2019-03-16T04:18:39.235Z,7.56
2019-03-16T04:19:39.268Z,7.55
2019-03-16T04:20:39.495Z,7.58
2019-03-16T04:21:39.218Z,7.55
2019-03-16T04:22:39.208Z,7.50
2019-03-16T04:23:39.206Z,7.50
2019-03-16T04:24:39.177Z,7.49
2019-03-16T04:25:39.266Z,7.56
2019-03-16T04:26:39.151Z,7.55
2019-03-16T04:27:39.434Z,7.45
2019-03-16T04:28:39.134Z,7.53
2019-03-16T04:29:39.147Z,7.53
2019-03-16T04:30:39.112Z,7.59
2019-03-16T04:31:39.165Z,7.52
2019-03-16T04:32:39.102Z,7.49
2019-03-16T04:33:39.192Z,7.59
2019-03-16T04:34:39.386Z,7.47
2019-03-16T04:35:39.059Z,7.49
2019-03-16T04:36:39.058Z,7.47
2019-03-16T04:37:39.084Z,7.52
2019-03-16T04:38:39.585Z,7.41
2019-03-16T04:39:39.024Z,7.50
2019-03-16T04:40:39.013Z,7.55
2019-03-16T04:41:39.301Z,7.47
2019-03-16T04:42:38.987Z,7.53
2019-03-16T04:43:39.010Z,7.44
2019-03-16T04:44:38.961Z,7.49
2019-03-16T04:45:38.951Z,7.47
2019-03-16T04:46:38.942Z,7.41
2019-03-16T04:47:38.930Z,7.37
2019-03-16T04:48:39.211Z,7.41
2019-03-16T04:49:38.984Z,7.32
2019-03-16T04:50:38.915Z,7.47
2019-03-16T04:51:39.723Z,7.49
2019-03-16T04:52:38.889Z,7.53
2019-03-16T04:53:38.876Z,7.47
2019-03-16T04:54:38.870Z,7.50
2019-03-16T04:55:39.289Z,7.56
2019-03-16T04:56:38.970Z,7.45
2019-03-16T04:57:38.992Z,7.50
2019-03-16T04:58:39.051Z,7.52
2019-03-16T04:59:38.805Z,7.45
2019-03-16T05:00:38.801Z,7.53
2019-03-16T05:01:39.112Z,7.47
2019-03-16T05:02:38.771Z,7.52
2019-03-16T05:03:38.763Z,7.53
2019-03-16T05:04:42.637Z,7.56
2019-03-16T05:05:38.746Z,7.53
2019-03-16T05:06:38.729Z,7.56
2019-03-16T05:07:38.802Z,7.52
2019-03-16T05:08:39.006Z,7.50
2019-03-16T05:09:38.701Z,7.56
2019-03-16T05:10:38.694Z,7.56
2019-03-16T05:11:38.687Z,7.56
2019-03-16T05:12:38.665Z,7.44
2019-03-16T05:13:38.690Z,7.58
2019-03-16T05:14:38.648Z,7.55
2019-03-16T05:15:38.918Z,7.50
2019-03-16T05:16:38.624Z,7.44
2019-03-16T05:17:38.617Z,7.35
2019-03-16T05:18:38.618Z,7.37
2019-03-16T05:19:38.626Z,7.31
2019-03-16T05:20:38.587Z,7.34
2019-03-16T05:21:38.575Z,7.31
2019-03-16T05:22:38.850Z,7.32
2019-03-16T05:23:38.552Z,7.31
2019-03-16T05:24:38.582Z,7.19
2019-03-16T05:25:38.594Z,7.20
2019-03-16T05:26:38.519Z,7.16
2019-03-16T05:27:38.519Z,7.16
2019-03-16T05:28:38.515Z,7.19
2019-03-16T05:29:38.800Z,7.05
2019-03-16T05:30:38.481Z,7.07
2019-03-16T05:31:38.501Z,7.09
2019-03-16T05:32:38.466Z,7.09
2019-03-16T05:33:38.449Z,6.97
2019-03-16T05:34:38.436Z,6.91
2019-03-16T05:35:38.427Z,6.95
2019-03-16T05:36:38.709Z,6.79
2019-03-16T05:37:38.439Z,6.69
2019-03-16T05:38:38.397Z,6.73
2019-03-16T05:39:38.382Z,6.59
2019-03-16T05:40:38.376Z,6.68
2019-03-16T05:41:38.360Z,6.48
2019-03-16T05:42:38.351Z,6.48
2019-03-16T05:43:38.762Z,6.33
2019-03-16T05:44:38.330Z,6.29
2019-03-16T05:45:38.322Z,6.32
2019-03-16T05:46:38.309Z,6.26
2019-03-16T05:47:38.301Z,6.18
2019-03-16T05:48:38.290Z,6.13
2019-03-16T05:49:38.314Z,6.07
2019-03-16T05:50:38.553Z,6.11
2019-03-16T05:51:38.256Z,6.04
2019-03-16T05:52:38.246Z,6.03
2019-03-16T05:53:38.242Z,6.03
2019-03-16T05:54:38.230Z,6.07
2019-03-16T05:55:38.252Z,5.95
2019-03-16T05:56:38.211Z,6.04
2019-03-16T05:57:38.479Z,6.07
2019-03-16T05:58:38.186Z,6.13
2019-03-16T05:59:38.177Z,6.04
2019-03-16T06:00:38.168Z,6.03
2019-03-16T06:01:38.196Z,5.98
2019-03-16T06:02:38.159Z,5.88
2019-03-16T06:03:38.131Z,5.88
2019-03-16T06:04:38.441Z,5.89
2019-03-16T06:05:38.187Z,6.00
2019-03-16T06:06:38.100Z,5.92
2019-03-16T06:07:38.137Z,5.86
2019-03-16T06:08:39.059Z,5.98
2019-03-16T06:09:38.069Z,5.88
2019-03-16T06:10:38.062Z,5.86
2019-03-16T06:11:38.343Z,5.95
2019-03-16T06:12:38.038Z,5.93
2019-03-16T06:13:38.063Z,5.95
2019-03-16T06:14:38.018Z,5.89
2019-03-16T06:15:38.024Z,5.91
2019-03-16T06:16:37.998Z,5.89
2019-03-16T06:17:37.986Z,6.03
2019-03-16T06:18:38.371Z,6.00
2019-03-16T06:19:38.013Z,5.96
2019-03-16T06:20:38.030Z,5.95
2019-03-16T06:21:37.947Z,5.92
2019-03-16T06:22:37.934Z,5.95
2019-03-16T06:23:37.927Z,5.95
2019-03-16T06:24:37.917Z,5.95
2019-03-16T06:25:37.941Z,6.03
2019-03-16T06:26:38.519Z,5.89
2019-03-16T06:27:37.883Z,5.88
2019-03-16T06:28:37.874Z,5.86
2019-03-16T06:29:37.862Z,5.92
2019-03-16T06:30:38.137Z,5.91
2019-03-16T06:31:37.877Z,5.86
2019-03-16T06:32:37.830Z,5.85
2019-03-16T06:33:37.924Z,5.75
2019-03-16T06:34:37.809Z,5.77
2019-03-16T06:35:37.806Z,5.85
2019-03-16T06:36:37.804Z,5.82
2019-03-16T06:37:38.080Z,5.78
2019-03-16T06:38:37.767Z,5.85
2019-03-16T06:39:37.759Z,5.83
2019-03-16T06:40:37.749Z,5.82
2019-03-16T06:41:37.750Z,5.89
2019-03-16T06:42:38.151Z,5.96
2019-03-16T06:43:37.755Z,6.01
2019-03-16T06:44:37.706Z,5.93
2019-03-16T06:45:37.708Z,5.89
2019-03-16T06:46:37.687Z,5.93
2019-03-16T06:47:37.674Z,5.88
2019-03-16T06:48:37.674Z,5.92
2019-03-16T06:49:38.233Z,5.92
2019-03-16T06:50:37.642Z,5.93
2019-03-16T06:51:37.634Z,6.01
2019-03-16T06:52:37.623Z,6.01
2019-03-16T06:53:37.710Z,5.88
2019-03-16T06:54:37.603Z,5.96
2019-03-16T06:55:38.177Z,5.91
2019-03-16T06:56:38.045Z,5.86
2019-03-16T06:57:37.575Z,5.98
2019-03-16T06:58:37.576Z,5.93
2019-03-16T06:59:37.551Z,6.04
2019-03-16T07:00:37.539Z,6.00
2019-03-16T07:01:37.562Z,5.98
2019-03-16T07:02:37.519Z,5.89
2019-03-16T07:03:38.513Z,6.09
2019-03-16T07:04:37.501Z,6.01
2019-03-16T07:05:38.903Z,6.07
2019-03-16T07:06:37.480Z,6.00
2019-03-16T07:07:37.502Z,6.07
2019-03-16T07:08:37.457Z,6.07
2019-03-16T07:09:37.444Z,5.98
2019-03-16T07:10:37.944Z,5.96
2019-03-16T07:11:37.437Z,6.01
2019-03-16T07:12:37.412Z,5.96
2019-03-16T07:13:37.446Z,5.95
2019-03-16T07:14:37.393Z,5.98
2019-03-16T07:15:37.381Z,6.04
2019-03-16T07:16:37.371Z,6.01
2019-03-16T07:17:38.713Z,6.04
2019-03-16T07:18:37.351Z,6.03
2019-03-16T07:19:38.184Z,6.04
2019-03-16T07:20:37.328Z,6.04
2019-03-16T07:21:37.319Z,6.03
2019-03-16T07:22:37.307Z,6.11
2019-03-16T07:23:37.333Z,6.13
2019-03-16T07:24:37.742Z,6.13
2019-03-16T07:25:37.399Z,6.01
2019-03-16T07:26:37.267Z,5.89
2019-03-16T07:27:37.255Z,5.95
2019-03-16T07:28:37.244Z,6.04
2019-03-16T07:29:37.236Z,6.01
2019-03-16T07:30:37.464Z,6.16
2019-03-16T07:31:37.504Z,6.01
2019-03-16T07:32:37.202Z,6.14
2019-03-16T07:33:37.193Z,6.03
2019-03-16T07:34:37.181Z,6.01
2019-03-16T07:35:37.175Z,5.91
2019-03-16T07:36:37.162Z,6.03
2019-03-16T07:37:37.672Z,5.88
2019-03-16T07:38:37.142Z,6.07
2019-03-16T07:39:37.129Z,5.92
2019-03-16T07:40:37.124Z,5.98
2019-03-16T07:41:37.111Z,6.04
2019-03-16T07:42:37.102Z,6.09
2019-03-16T07:43:37.212Z,6.16
2019-03-16T07:44:37.484Z,6.10
2019-03-16T07:45:37.066Z,6.19
2019-03-16T07:46:37.056Z,6.10
2019-03-16T07:47:37.049Z,6.14
2019-03-16T07:48:37.036Z,6.11
2019-03-16T07:49:39.220Z,6.10
2019-03-16T07:50:37.016Z,6.14
2019-03-16T07:51:37.017Z,6.19
2019-03-16T07:52:36.995Z,6.10
2019-03-16T07:53:36.982Z,6.21
2019-03-16T07:54:36.973Z,6.10
2019-03-16T07:55:37.182Z,6.10
2019-03-16T07:56:37.927Z,6.11
2019-03-16T07:57:40.338Z,6.14
2019-03-16T07:58:36.956Z,6.07
2019-03-16T07:59:37.422Z,6.11
2019-03-16T08:00:36.908Z,6.26
2019-03-16T08:01:37.022Z,6.21
2019-03-16T08:02:36.893Z,6.33
2019-03-16T08:03:37.229Z,6.33
2019-03-16T08:04:36.868Z,6.26
2019-03-16T08:05:36.856Z,6.32
2019-03-16T08:06:36.868Z,6.36
2019-03-16T08:07:36.982Z,6.26
2019-03-16T08:08:36.826Z,6.40
2019-03-16T08:09:36.816Z,6.30
2019-03-16T08:10:36.805Z,6.38
2019-03-16T08:11:36.796Z,6.43
2019-03-16T08:12:36.784Z,6.46
2019-03-16T08:13:36.801Z,6.43
2019-03-16T08:14:36.828Z,6.51
2019-03-16T08:15:36.798Z,6.51
2019-03-16T08:16:37.508Z,6.51
2019-03-16T08:17:37.106Z,6.51
2019-03-16T08:18:36.750Z,6.46
2019-03-16T08:19:36.743Z,6.62
2019-03-16T08:20:36.701Z,6.72
2019-03-16T08:21:37.051Z,6.69
2019-03-16T08:22:36.695Z,6.65
2019-03-16T08:23:36.677Z,6.62
2019-03-16T08:24:36.658Z,6.69
2019-03-16T08:25:36.710Z,6.71
2019-03-16T08:26:36.657Z,6.72
2019-03-16T08:27:36.628Z,6.62
2019-03-16T08:28:37.929Z,6.66
2019-03-16T08:29:36.611Z,6.68
2019-03-16T08:30:36.608Z,6.50
2019-03-16T08:31:36.616Z,6.66
2019-03-16T08:32:36.583Z,6.53
2019-03-16T08:33:36.577Z,6.44
2019-03-16T08:34:36.557Z,6.51
2019-03-16T08:35:36.957Z,6.53
2019-03-16T08:36:36.534Z,6.48
2019-03-16T08:37:36.551Z,6.47
2019-03-16T08:38:36.514Z,6.51
2019-03-16T08:39:36.503Z,6.63
2019-03-16T08:40:36.495Z,6.66
2019-03-16T08:41:36.484Z,6.62
2019-03-16T08:42:36.800Z,6.62
2019-03-16T08:43:36.499Z,6.54
2019-03-16T08:44:36.458Z,6.48
2019-03-16T08:45:36.441Z,6.53
2019-03-16T08:46:36.435Z,6.53
2019-03-16T08:47:36.420Z,6.59
2019-03-16T08:48:36.424Z,6.58
2019-03-16T08:49:37.543Z,6.61
2019-03-16T08:50:36.397Z,6.61
2019-03-16T08:51:36.379Z,6.69
2019-03-16T08:52:36.396Z,6.77
2019-03-16T08:53:36.359Z,6.84
2019-03-16T08:54:36.369Z,6.80
2019-03-16T08:55:36.365Z,6.58
2019-03-16T08:56:36.705Z,6.59
2019-03-16T08:57:36.322Z,6.71
2019-03-16T08:58:36.306Z,6.79
2019-03-16T08:59:36.303Z,6.72
2019-03-16T09:00:36.289Z,6.73
2019-03-16T09:01:38.005Z,6.68
2019-03-16T09:02:36.268Z,6.68
2019-03-16T09:03:43.562Z,6.68
2019-03-16T09:04:37.260Z,6.61
2019-03-16T09:05:36.239Z,6.58
2019-03-16T09:06:36.351Z,6.73
2019-03-16T09:07:36.332Z,6.69
2019-03-16T09:08:36.203Z,6.69
2019-03-16T09:09:36.197Z,6.76
2019-03-16T09:10:36.607Z,6.79
2019-03-16T09:11:36.172Z,6.71
2019-03-16T09:12:36.298Z,6.80
2019-03-16T09:13:36.768Z,6.84
2019-03-16T09:14:36.171Z,6.87
2019-03-16T09:15:36.145Z,6.84
2019-03-16T09:16:36.276Z,6.76
2019-03-16T09:17:36.129Z,6.80
2019-03-16T09:18:36.103Z,6.79
2019-03-16T09:19:36.314Z,6.79
2019-03-16T09:20:36.101Z,6.94
2019-03-16T09:21:36.221Z,6.91
2019-03-16T09:22:36.143Z,6.86
2019-03-16T09:23:36.769Z,6.89
2019-03-16T09:24:37.303Z,6.81
2019-03-16T09:25:36.302Z,6.89
2019-03-16T09:26:36.101Z,6.86
2019-03-16T09:27:36.060Z,6.86
2019-03-16T09:28:36.050Z,6.86
2019-03-16T09:29:35.989Z,6.79
2019-03-16T09:30:36.389Z,6.90
2019-03-16T09:31:36.888Z,6.89
2019-03-16T09:32:36.009Z,6.97
2019-03-16T09:33:35.961Z,7.04
2019-03-16T09:34:35.941Z,7.01
2019-03-16T09:35:36.824Z,7.09
2019-03-16T09:36:35.923Z,7.08
2019-03-16T09:37:36.435Z,7.12
2019-03-16T09:38:35.893Z,7.12
2019-03-16T09:39:35.882Z,7.07
2019-03-16T09:40:36.494Z,7.13
2019-03-16T09:41:35.886Z,7.19
2019-03-16T09:42:36.527Z,7.08
2019-03-16T09:43:35.960Z,7.15
2019-03-16T09:44:35.905Z,7.02
2019-03-16T09:45:35.821Z,7.07
2019-03-16T09:46:35.844Z,7.09
2019-03-16T09:47:35.832Z,7.12
2019-03-16T09:48:35.903Z,7.19
2019-03-16T09:49:36.258Z,7.19
2019-03-16T09:50:37.112Z,7.15
2019-03-16T09:51:35.924Z,7.17
2019-03-16T09:52:36.496Z,7.17
2019-03-16T09:53:36.155Z,7.09
2019-03-16T09:54:35.943Z,7.12
2019-03-16T09:55:40.033Z,7.09
2019-03-16T09:56:35.724Z,7.12
2019-03-16T09:57:35.714Z,7.24
2019-03-16T09:58:35.731Z,7.20
2019-03-16T09:59:35.678Z,7.24
2019-03-16T10:00:35.733Z,7.19
2019-03-16T10:01:36.103Z,7.38
2019-03-16T10:02:35.646Z,7.34
2019-03-16T10:03:35.646Z,7.34
2019-03-16T10:04:35.729Z,7.31
2019-03-16T10:05:35.661Z,7.34
2019-03-16T10:06:35.775Z,7.31
2019-03-16T10:07:36.557Z,7.35
2019-03-16T10:08:35.662Z,7.52
2019-03-16T10:09:35.640Z,7.53
2019-03-16T10:10:35.731Z,7.60
2019-03-16T10:11:36.231Z,7.66
2019-03-16T10:12:35.542Z,7.84
2019-03-16T10:13:36.713Z,7.69
2019-03-16T10:14:37.369Z,7.82
2019-03-16T10:15:35.514Z,7.99
2019-03-16T10:16:35.501Z,7.97
2019-03-16T10:17:35.491Z,8.00
2019-03-16T10:18:35.496Z,7.96
2019-03-16T10:19:35.601Z,8.04
2019-03-16T10:20:35.470Z,8.14
2019-03-16T10:21:35.807Z,8.21
2019-03-16T10:22:35.438Z,8.11
2019-03-16T10:23:36.101Z,8.12
2019-03-16T10:24:35.421Z,8.15
2019-03-16T10:25:35.457Z,8.18
2019-03-16T10:26:37.574Z,8.25
2019-03-16T10:27:35.387Z,8.25
2019-03-16T10:28:43.597Z,8.25
2019-03-16T10:29:36.382Z,8.30
2019-03-16T10:30:35.664Z,8.35
2019-03-16T10:31:36.509Z,8.42
2019-03-16T10:32:35.478Z,8.53
2019-03-16T10:33:35.353Z,8.50
2019-03-16T10:34:35.340Z,8.51
2019-03-16T10:35:36.212Z,8.58
2019-03-16T10:36:35.530Z,8.58
2019-03-16T10:37:36.527Z,8.53
2019-03-16T10:38:38.326Z,8.68
2019-03-16T10:39:35.742Z,8.63
2019-03-16T10:40:35.258Z,8.72
2019-03-16T10:41:36.156Z,8.69
2019-03-16T10:42:35.664Z,8.79
2019-03-16T10:43:35.871Z,8.83
2019-03-16T10:44:35.396Z,8.83
2019-03-16T10:45:35.636Z,8.79
2019-03-16T10:46:36.344Z,8.93
2019-03-16T10:47:35.207Z,8.91
2019-03-16T10:48:35.171Z,8.94
2019-03-16T10:49:35.708Z,8.94
2019-03-16T10:50:35.495Z,9.09
2019-03-16T10:51:35.137Z,9.05
2019-03-16T10:52:35.130Z,9.15
2019-03-16T10:53:35.232Z,9.16
2019-03-16T10:54:35.108Z,9.21
2019-03-16T10:55:35.132Z,9.20
2019-03-16T10:56:38.433Z,9.28
2019-03-16T10:57:35.096Z,9.30
2019-03-16T10:58:35.269Z,9.42
2019-03-16T10:59:36.196Z,9.42
2019-03-16T11:00:35.281Z,9.52
2019-03-16T11:01:35.431Z,9.58
2019-03-16T11:02:35.368Z,9.64
2019-03-16T11:03:36.043Z,9.68
2019-03-16T11:04:35.625Z,9.76
2019-03-16T11:05:35.762Z,9.70
2019-03-16T11:06:35.370Z,9.78
2019-03-16T11:07:36.538Z,9.79
2019-03-16T11:08:35.134Z,9.81
2019-03-16T11:09:35.863Z,9.91
2019-03-16T11:10:35.457Z,9.89
2019-03-16T11:11:35.031Z,9.89
2019-03-16T11:12:35.602Z,10.00
2019-03-16T11:13:35.968Z,9.99
2019-03-16T11:14:35.000Z,10.06
2019-03-16T11:15:35.078Z,10.06
2019-03-16T11:16:35.988Z,10.12
2019-03-16T11:17:34.995Z,10.21
2019-03-16T11:18:34.974Z,10.24
2019-03-16T11:19:35.012Z,10.25
2019-03-16T11:20:34.927Z,10.30
2019-03-16T11:21:34.820Z,10.22
2019-03-16T11:22:34.817Z,10.28
2019-03-16T11:23:34.816Z,10.28
2019-03-16T11:24:35.296Z,10.30
2019-03-16T11:25:35.519Z,10.28
2019-03-16T11:26:35.481Z,10.37
2019-03-16T11:27:34.867Z,10.37
2019-03-16T11:28:34.980Z,10.36
2019-03-16T11:29:35.199Z,10.37
2019-03-16T11:30:34.979Z,10.28
2019-03-16T11:31:35.905Z,10.39
2019-03-16T11:32:34.710Z,10.33
2019-03-16T11:33:34.704Z,10.28
2019-03-16T11:34:34.689Z,10.26
2019-03-16T11:35:34.814Z,10.30
2019-03-16T11:36:35.097Z,10.26
2019-03-16T11:37:34.730Z,10.28
2019-03-16T11:38:34.663Z,10.28
2019-03-16T11:39:34.686Z,10.34
2019-03-16T11:40:34.725Z,10.37
2019-03-16T11:41:34.765Z,10.26
2019-03-16T11:42:35.615Z,10.30
2019-03-16T11:43:35.427Z,10.24
2019-03-16T11:44:34.781Z,10.26
2019-03-16T11:45:34.814Z,10.22
2019-03-16T11:46:34.779Z,10.30
2019-03-16T11:47:34.723Z,10.24
2019-03-16T11:48:34.791Z,10.25
2019-03-16T11:49:35.549Z,10.28
2019-03-16T11:50:35.496Z,10.24
2019-03-16T11:51:34.514Z,10.15
2019-03-16T11:52:34.506Z,10.25
2019-03-16T11:53:34.561Z,10.22
2019-03-16T11:54:34.499Z,10.32
2019-03-16T11:55:34.546Z,10.19
2019-03-16T11:56:34.450Z,10.26
2019-03-16T11:57:34.442Z,10.28
2019-03-16T11:58:34.572Z,10.25
2019-03-16T11:59:34.485Z,10.30
2019-03-16T12:00:34.601Z,10.28
2019-03-16T12:01:36.833Z,10.25
2019-03-16T12:02:34.474Z,10.26
2019-03-16T12:03:34.419Z,10.32
2019-03-16T12:04:34.370Z,10.30
2019-03-16T12:05:34.428Z,10.34
2019-03-16T12:06:34.385Z,10.34
2019-03-16T12:07:35.389Z,10.37
2019-03-16T12:08:34.343Z,10.34
2019-03-16T12:09:35.486Z,10.34
2019-03-16T12:10:34.396Z,10.43
2019-03-16T12:11:34.296Z,10.33
2019-03-16T12:12:34.290Z,10.43
2019-03-16T12:13:34.394Z,10.36
2019-03-16T12:14:34.306Z,10.33
2019-03-16T12:15:34.260Z,10.37
2019-03-16T12:16:35.122Z,10.43
2019-03-16T12:17:34.273Z,10.33
2019-03-16T12:18:34.220Z,10.30
2019-03-16T12:19:34.377Z,10.34
2019-03-16T12:20:34.243Z,10.24
2019-03-16T12:21:34.636Z,10.34
2019-03-16T12:22:34.198Z,10.30
2019-03-16T12:23:34.329Z,10.33
2019-03-16T12:24:34.168Z,10.19
2019-03-16T12:25:34.420Z,10.30
2019-03-16T12:26:34.137Z,10.26
2019-03-16T12:27:34.197Z,10.24
2019-03-16T12:28:35.677Z,10.24
2019-03-16T12:29:34.501Z,10.21
2019-03-16T12:30:35.011Z,10.19
2019-03-16T12:31:34.124Z,10.25
2019-03-16T12:32:34.088Z,10.22
2019-03-16T12:33:35.287Z,10.22
2019-03-16T12:34:34.085Z,10.30
2019-03-16T12:35:34.483Z,10.21
2019-03-16T12:36:34.041Z,10.40
2019-03-16T12:37:35.154Z,10.39
2019-03-16T12:38:35.225Z,10.36
2019-03-16T12:39:35.669Z,10.40
2019-03-16T12:40:34.506Z,10.28
2019-03-16T12:41:34.507Z,10.32
2019-03-16T12:42:34.448Z,10.39
2019-03-16T12:43:34.088Z,10.36
2019-03-16T12:44:33.952Z,10.36
2019-03-16T12:45:33.957Z,10.34
2019-03-16T12:46:34.144Z,10.36
2019-03-16T12:47:33.917Z,10.34
2019-03-16T12:48:33.908Z,10.33
2019-03-16T12:49:34.410Z,10.40
2019-03-16T12:50:33.908Z,10.43
2019-03-16T12:51:34.618Z,10.43
2019-03-16T12:52:34.115Z,10.36
2019-03-16T12:53:33.995Z,10.56
2019-03-16T12:54:33.956Z,10.56
2019-03-16T12:55:34.927Z,10.47
2019-03-16T12:56:34.281Z,10.52
2019-03-16T12:57:33.851Z,10.58
2019-03-16T12:58:33.913Z,10.65
2019-03-16T12:59:45.932Z,10.68
2019-03-16T13:00:35.168Z,10.71
2019-03-16T13:01:33.846Z,10.81
2019-03-16T13:02:33.773Z,10.78
2019-03-16T13:03:35.097Z,10.77
2019-03-16T13:04:33.747Z,10.80
2019-03-16T13:05:33.751Z,10.96
2019-03-16T13:06:33.725Z,10.92
2019-03-16T13:07:33.934Z,11.06
2019-03-16T13:08:33.828Z,11.10
2019-03-16T13:09:33.748Z,11.14
2019-03-16T13:10:34.268Z,11.19
2019-03-16T13:11:34.968Z,11.16
2019-03-16T13:12:34.470Z,11.16
2019-03-16T13:13:34.380Z,11.13
2019-03-16T13:14:33.655Z,11.09
2019-03-16T13:15:33.642Z,11.13